createdAt,value
2023-04-29T00:02:18.237Z,99741.16
2023-04-29T00:07:22.464Z,99744.63
2023-04-29T00:12:28.254Z,99739.03
2023-04-29T00:17:34.572Z,99730.34
2023-04-29T00:22:37.740Z,99736.56
2023-04-29T00:27:42.606Z,99725.75
2023-04-29T00:32:46.799Z,99721.97
2023-04-29T00:37:50.536Z,99718.69
2023-04-29T00:42:55.066Z,99715.91
2023-04-29T00:47:58.633Z,99715.25
2023-04-29T00:53:02.342Z,99720.19
2023-04-29T00:58:07.572Z,99730.84
2023-04-29T01:03:11.998Z,99736.44
2023-04-29T01:08:30.673Z,99742.69
2023-04-29T01:13:44.541Z,99740.22
2023-04-29T01:24:24.631Z,99735.75
2023-04-29T01:29:35.219Z,99739.88
2023-04-29T01:34:47.517Z,99744.16
2023-04-29T01:40:01.953Z,99750.25
2023-04-29T01:45:09.796Z,99740.22
2023-04-29T01:50:13.050Z,99747.44
2023-04-29T01:55:17.828Z,99754.84
2023-04-29T02:00:22.677Z,99760.56
2023-04-29T02:05:26.992Z,99758.78
2023-04-29T02:10:31.579Z,99761.22
2023-04-29T02:15:37.636Z,99763.38
2023-04-29T02:20:41.141Z,99768.63
2023-04-29T02:25:45.731Z,99761.25
2023-04-29T02:30:49.013Z,99764.69
2023-04-29T02:35:52.290Z,99767.50
2023-04-29T02:40:57.335Z,99767.66
2023-04-29T02:46:00.778Z,99771.13
2023-04-29T02:51:04.417Z,99766.00
2023-04-29T02:56:09.230Z,99768.63
2023-04-29T03:01:12.612Z,99766.34
2023-04-29T03:06:16.097Z,99764.69
2023-04-29T03:11:21.015Z,99764.53
2023-04-29T03:16:24.611Z,99771.59
2023-04-29T03:21:28.108Z,99769.44
2023-04-29T03:26:32.792Z,99764.38
2023-04-29T03:31:36.416Z,99763.38
2023-04-29T03:36:39.608Z,99760.25
2023-04-29T03:41:44.768Z,99761.88
2023-04-29T03:46:47.972Z,99762.88
2023-04-29T03:51:51.628Z,99754.84
2023-04-29T03:56:56.552Z,99761.75
2023-04-29T04:01:59.769Z,99765.16
2023-04-29T04:07:04.049Z,99773.91
2023-04-29T04:12:09.266Z,99777.97
2023-04-29T04:17:12.495Z,99782.25
2023-04-29T04:22:17.391Z,99785.38
2023-04-29T04:27:22.168Z,99793.78
2023-04-29T04:32:25.380Z,99793.47
2023-04-29T04:37:28.771Z,99796.75
2023-04-29T04:42:33.250Z,99792.16
2023-04-29T04:47:36.569Z,99793.66
2023-04-29T04:52:39.833Z,99787.22
2023-04-29T04:57:44.820Z,99806.78
2023-04-29T05:02:48.237Z,99807.44
2023-04-29T05:07:51.616Z,99821.56
2023-04-29T05:12:56.131Z,99809.25
2023-04-29T05:17:59.413Z,99803.53
2023-04-29T05:23:02.872Z,99819.34
2023-04-29T05:28:09.060Z,99828.88
2023-04-29T05:33:12.577Z,99833.97
2023-04-29T05:38:15.882Z,99837.28
2023-04-29T05:43:20.498Z,99832.03
2023-04-29T05:48:25.106Z,99847.66
2023-04-29T05:53:28.483Z,99856.22
2023-04-29T05:58:38.471Z,99858.84
2023-04-29T06:03:43.209Z,99866.91
2023-04-29T06:08:46.862Z,99872.31
2023-04-29T06:13:51.774Z,99881.06
2023-04-29T06:18:56.210Z,99883.19
2023-04-29T06:24:02.549Z,99886.81
2023-04-29T06:29:07.153Z,99894.88
2023-04-29T06:34:10.855Z,99904.09
2023-04-29T06:39:14.717Z,99910.34
2023-04-29T06:44:20.257Z,99912.81
2023-04-29T06:49:23.871Z,99917.06
2023-04-29T06:54:28.839Z,99921.84
2023-04-29T06:59:33.807Z,99919.22
2023-04-29T07:04:37.760Z,99920.56
2023-04-29T07:09:41.144Z,99929.09
2023-04-29T07:14:45.904Z,99938.78
2023-04-29T07:19:49.033Z,99940.47
2023-04-29T07:24:55.220Z,99944.72
2023-04-29T07:30:01.359Z,99950.19
2023-04-29T07:35:06.120Z,99960.84
2023-04-29T07:40:10.342Z,99962.34
2023-04-29T07:45:15.251Z,99971.88
2023-04-29T07:50:18.465Z,99978.16
2023-04-29T07:55:21.997Z,99987.38
2023-04-29T08:00:41.742Z,99989.69
2023-04-29T08:05:45.293Z,99992.81
2023-04-29T08:10:48.527Z,100002.22
2023-04-29T08:15:53.833Z,100013.06
2023-04-29T08:20:57.290Z,100031.53
2023-04-29T08:26:00.523Z,100035.78
2023-04-29T08:31:07.204Z,100043.53
2023-04-29T08:36:10.736Z,100049.78
2023-04-29T08:41:25.545Z,100047.81
2023-04-29T08:46:30.683Z,100052.44
2023-04-29T08:51:34.789Z,100057.88
2023-04-29T08:56:50.676Z,100069.22
2023-04-29T09:01:55.683Z,100069.06
2023-04-29T09:06:59.906Z,100076.50
2023-04-29T09:12:03.171Z,100087.50
2023-04-29T09:17:46.027Z,100094.78
2023-04-29T09:22:50.195Z,100094.59
2023-04-29T09:27:53.674Z,100111.88
2023-04-29T09:33:31.602Z,100125.91
2023-04-29T09:38:35.139Z,100124.75
2023-04-29T09:43:38.906Z,100136.13
2023-04-29T09:48:43.580Z,100138.44
2023-04-29T09:53:46.990Z,100156.53
2023-04-29T09:58:50.202Z,100160.97
2023-04-29T10:03:56.554Z,100170.53
2023-04-29T10:09:00.881Z,100174.47
2023-04-29T10:14:07.146Z,100191.41
2023-04-29T10:19:14.008Z,100190.06
2023-04-29T10:24:19.319Z,100200.59
2023-04-29T10:29:23.796Z,100185.00
2023-04-29T10:34:29.976Z,100207.53
2023-04-29T10:39:47.557Z,100206.53
2023-04-29T10:45:19.828Z,100217.19
2023-04-29T10:50:24.653Z,100222.84
2023-04-29T10:55:27.896Z,100225.94
2023-04-29T11:00:32.922Z,100225.72
2023-04-29T11:05:38.780Z,100234.56
2023-04-29T11:10:43.097Z,100246.09
2023-04-29T11:15:46.701Z,100241.81
2023-04-29T11:21:17.238Z,100246.75
2023-04-29T11:26:21.994Z,100246.38
2023-04-29T11:31:29.561Z,100254.50
2023-04-29T11:36:35.168Z,100251.88
2023-04-29T11:41:39.811Z,100267.47
2023-04-29T11:46:43.373Z,100278.47
2023-04-29T11:51:48.298Z,100290.94
2023-04-29T11:56:51.500Z,100301.16
2023-04-29T12:01:54.772Z,100305.28
2023-04-29T12:07:23.677Z,100308.38
2023-04-29T12:12:31.751Z,100315.97
2023-04-29T12:17:36.593Z,100317.72
2023-04-29T12:22:47.013Z,100312.25
2023-04-29T12:27:50.177Z,100306.59
2023-04-29T12:32:53.700Z,100307.84
2023-04-29T12:38:00.834Z,100317.47
2023-04-29T12:43:09.334Z,100318.84
2023-04-29T12:48:22.077Z,100317.72
2023-04-29T12:53:32.604Z,100320.69
2023-04-29T12:58:36.051Z,100324.28
2023-04-29T13:03:40.213Z,100322.25
2023-04-29T13:08:44.984Z,100327.06
2023-04-29T13:13:48.109Z,100328.22
2023-04-29T13:19:05.217Z,100335.34
2023-04-29T13:24:20.273Z,100339.31
2023-04-29T13:29:24.167Z,100336.84
2023-04-29T13:34:27.434Z,100337.16
2023-04-29T13:39:32.202Z,100342.13
2023-04-29T13:44:51.113Z,100339.50
2023-04-29T14:00:37.413Z,100342.28
2023-04-29T14:05:39.153Z,100347.25
2023-04-29T14:10:43.929Z,100345.41
2023-04-29T14:16:03.729Z,100347.72
2023-04-29T14:21:07.216Z,100356.94
2023-04-29T14:26:27.326Z,100357.75
2023-04-29T14:31:35.463Z,100365.53
2023-04-29T14:36:38.819Z,100360.41
2023-04-29T14:41:43.445Z,100364.88
2023-04-29T14:46:46.729Z,100378.41
2023-04-29T14:51:50.218Z,100373.78
2023-04-29T14:56:54.690Z,100385.84
2023-04-29T15:01:59.727Z,100395.25
2023-04-29T15:07:03.577Z,100397.25
2023-04-29T15:12:08.444Z,100391.97
2023-04-29T15:17:11.682Z,100392.47
2023-04-29T15:22:14.829Z,100394.13
2023-04-29T15:27:20.277Z,100401.38
2023-04-29T15:32:24.708Z,100413.06
2023-04-29T15:37:29.238Z,100415.06
2023-04-29T15:42:34.126Z,100420.84
2023-04-29T15:47:37.285Z,100418.53
2023-04-29T15:52:41.842Z,100430.75
2023-04-29T15:57:46.498Z,100436.38
2023-04-29T16:02:49.879Z,100435.69
2023-04-29T16:07:54.565Z,100434.56
2023-04-29T16:12:59.096Z,100440.50
2023-04-29T16:18:02.715Z,100440.13
2023-04-29T16:23:06.578Z,100441.28
2023-04-29T16:28:11.211Z,100443.91
2023-04-29T16:33:16.422Z,100452.66
2023-04-29T16:38:19.966Z,100453.16
2023-04-29T16:43:24.530Z,100455.44
2023-04-29T16:48:27.913Z,100458.25
2023-04-29T16:53:31.454Z,100462.50
2023-04-29T16:58:36.678Z,100467.94
2023-04-29T17:03:40.734Z,100474.66
2023-04-29T17:08:44.723Z,100474.47
2023-04-29T17:13:50.649Z,100486.47
2023-04-29T17:18:54.437Z,100489.44
2023-04-29T17:23:58.931Z,100496.16
2023-04-29T17:29:05.258Z,100494.47
2023-04-29T17:34:18.461Z,100499.53
2023-04-29T17:39:22.341Z,100504.63
2023-04-29T17:44:28.200Z,100506.25
2023-04-29T17:49:31.487Z,100506.69
2023-04-29T17:54:35.022Z,100516.19
2023-04-29T17:59:39.556Z,100522.09
2023-04-29T18:04:43.178Z,100522.03
2023-04-29T18:09:47.661Z,100533.47
2023-04-29T18:14:53.025Z,100528.16
2023-04-29T18:19:56.551Z,100531.38
2023-04-29T18:25:00.370Z,100548.63
2023-04-29T18:30:05.703Z,100543.13
2023-04-29T18:35:10.743Z,100547.31
2023-04-29T18:40:17.874Z,100561.75
2023-04-29T18:45:23.573Z,100568.59
2023-04-29T18:50:26.807Z,100573.47
2023-04-29T18:55:33.584Z,100576.84
2023-04-29T19:00:38.491Z,100592.28
2023-04-29T19:05:42.107Z,100595.19
2023-04-29T19:10:46.538Z,100597.72
2023-04-29T19:15:53.637Z,100608.72
2023-04-29T19:21:04.922Z,100608.97
2023-04-29T19:26:09.669Z,100618.81
2023-04-29T19:31:14.704Z,100620.94
2023-04-29T19:36:18.145Z,100620.38
2023-04-29T19:41:22.173Z,100626.75
2023-04-29T19:46:26.726Z,100631.47
2023-04-29T19:51:30.001Z,100633.41
2023-04-29T19:56:34.004Z,100631.09
2023-04-29T20:01:38.877Z,100644.53
2023-04-29T20:06:42.229Z,100645.50
2023-04-29T20:11:47.637Z,100645.94
2023-04-29T20:16:53.336Z,100643.59
2023-04-29T20:21:56.750Z,100645.66
2023-04-29T20:27:00.182Z,100655.50
2023-04-29T20:32:06.157Z,100655.66
2023-04-29T20:37:09.784Z,100655.09
2023-04-29T20:42:13.082Z,100663.28
2023-04-29T20:47:17.688Z,100662.72
2023-04-29T20:52:21.447Z,100656.91
2023-04-29T20:57:25.979Z,100660.75
2023-04-29T21:02:30.711Z,100662.72
2023-04-29T21:07:34.050Z,100663.00
2023-04-29T21:12:37.211Z,100667.56
2023-04-29T21:17:41.878Z,100674.78
2023-04-29T21:22:46.816Z,100674.34
2023-04-29T21:27:50.149Z,100682.50
2023-04-29T21:32:54.890Z,100685.41
2023-04-29T21:37:58.715Z,100686.66
2023-04-29T21:43:01.998Z,100690.69
2023-04-29T21:48:14.624Z,100690.28
2023-04-29T21:53:18.280Z,100696.22
2023-04-29T21:58:21.399Z,100696.63
2023-04-29T22:03:26.240Z,100695.63
2023-04-29T22:08:29.650Z,100704.59
2023-04-29T22:13:32.810Z,100700.84
2023-04-29T22:18:37.706Z,100715.41
2023-04-29T22:23:40.816Z,100722.13
2023-04-29T22:28:44.064Z,100725.19
2023-04-29T22:33:48.782Z,100729.84
2023-04-29T22:38:52.080Z,100731.13
2023-04-29T22:43:57.572Z,100738.34
2023-04-29T22:49:02.334Z,100739.25
2023-04-29T22:54:05.670Z,100744.69
2023-04-29T22:59:08.825Z,100740.31
2023-04-29T23:04:14.874Z,100751.81
2023-04-29T23:09:18.209Z,100756.25
2023-04-29T23:14:22.495Z,100759.84
2023-04-29T23:19:27.248Z,100769.53
2023-04-29T23:24:30.605Z,100763.81
2023-04-29T23:29:35.172Z,100773.69
2023-04-29T23:34:39.899Z,100784.16
2023-04-29T23:39:43.102Z,100782.72
2023-04-29T23:44:46.509Z,100784.50
2023-04-29T23:49:51.102Z,100787.22
2023-04-29T23:54:54.359Z,100797.91
2023-04-29T23:59:57.592Z,100789.91
